Terminal Aerodrome Forecast
Issued by NWS Shreveport, LA

Home | Current Version | Previous Version | Text Only | Print | Product List | Glossary On
Versions: 1 2 3 4 5 6 7 8 9 10 11 12 13 14 15 16
000
FTUS44 KSHV 311700
TAFSHV
TAF
KSHV 311727Z 3118/0118 13008KT P6SM BKN150
     FM312300 13007KT P6SM BKN050
      TEMPO 0103/0107 -RA OVC015
     FM010700 16012KT 5SM RA BR OVC008
     FM011500 20012G18KT P6SM VCTS OVC010CB=

USA.gov is the U.S. government's official web portal to all federal, state and local government web resources and services.